aviador You're here:

OKBK Decoded Metar

KUWAIT in KUWAIT
Report Time2017-09-21 19:00:00
UTC Time2017-09-21 19:27:54
Flight Rules mvfr MVFR
WindCalm
Visibility6000 m
Phenomena:N/A
Clouds:N/A
Expected CloudBase > 2,800 ft AGL from Temp-Dew spread
CeilingNone
Temp30°C (ISA +15)
Dew Point23°C (66% RH)
Heat Index34.1°C
QNH1004 hPa
Density Alt2,612 ft
Elevation180 ft
Report Wrong Elevation
Raw Report
METAR OKBK 211900Z 00000KT 6000 SKC 30/23 Q1004 NOSIG=

Extra information for OKBK:More info

Metar Taf Metar & Taf Last 4 Metars F.Rules Stats Wind Profile Meteogram Temp Stats Airport Information Weather charts Add Link Nearby VenuesMetar ALERT Operation Metar Decoded Social comments